Time;durP1;ratioP1;P1;durP2;ratioP2;P2;SDS_P1;SDS_P2;PMS_P1;PMS_P2;Temp;Humidity;BMP_temperature;BMP_pressure;BME280_temperature;BME280_humidity;BME280_pressure;Samples;Min_cycle;Max_cycle;Signal;HPM_P1;HPM_P2
2022/04/04 00:01:34;;;;;;;;;;;;;;;17.89;62.63;101157.06;4992766;28;1366;-59
2022/04/04 00:04:01;;;;;;;;;;;;;;;17.95;62.66;101185.19;4991140;28;1424;-53
2022/04/04 00:06:30;;;;;;;;;;;;;;;17.89;62.44;101163.28;4994102;28;1123;-60
2022/04/04 00:08:57;;;;;;;;;;;;;;;17.89;62.53;101168.63;4992418;28;1981;-59
2022/04/04 00:11:24;;;;;;;;;;;;;;;17.89;62.42;101157.06;4992483;28;1432;-53
2022/04/04 00:13:51;;;;;;;;;;;;;;;17.84;62.89;101164.59;4992823;28;1275;-53
2022/04/04 00:16:17;;;;;;;;;;;;;;;17.87;62.42;101165.22;4989108;28;1515;-59
2022/04/04 00:18:44;;;;;;;;;;;;;;;17.86;62.38;101170.69;4988998;28;1658;-53
2022/04/04 00:21:10;;;;;;;;;;;;;;;17.89;62.53;101176.66;4984424;28;1493;-53
2022/04/04 00:23:37;;;;;;;;;;;;;;;17.82;62.24;101182.56;4989240;28;1793;-54
2022/04/04 00:26:06;;;;;;;;;;;;;;;17.83;62.87;101179.81;4988687;28;1619;-53
2022/04/04 00:28:33;;;;;;;;;;;;;;;17.81;62.22;101172.84;4985490;28;1977;-59
2022/04/04 00:30:59;;;;;;;;;;;;;;;17.86;62.51;101174.19;4990856;28;1624;-53
2022/04/04 00:33:26;;;;;;;;;;;;;;;17.85;62.70;101183.22;4992758;28;1571;-53
2022/04/04 00:35:52;;;;;;;;;;;;;;;17.81;62.46;101168.34;4992986;28;1422;-59
2022/04/04 00:38:19;;;;;;;;;;;;;;;17.79;62.42;101178.31;4992443;28;1674;-53
2022/04/04 00:40:45;;;;;;;;;;;;;;;17.82;62.14;101178.03;4987870;28;1556;-53
2022/04/04 00:43:13;;;;;;;;;;;;;;;17.82;62.53;101194.09;4988001;28;1507;-55
2022/04/04 00:45:44;;;;;;;;;;;;;;;17.86;62.31;101194.75;4984493;28;1559;-59
2022/04/04 00:48:10;;;;;;;;;;;;;;;17.83;61.86;101193.19;4976316;28;1971;-53
2022/04/04 00:50:37;;;;;;;;;;;;;;;17.81;62.11;101191.56;4985494;28;996;-59
2022/04/04 00:53:04;;;;;;;;;;;;;;;17.81;61.97;101184.38;4990466;28;1624;-59
2022/04/04 00:55:31;;;;;;;;;;;;;;;17.77;62.45;101182.91;4986043;28;1567;-59
2022/04/04 00:57:57;;;;;;;;;;;;;;;17.77;62.56;101185.59;4990687;28;1463;-59
2022/04/04 01:00:25;;;;;;;;;;;;;;;17.81;62.60;101192.41;4986053;28;1604;-59
2022/04/04 01:02:52;;;;;;;;;;;;;;;17.93;62.37;101179.09;4986815;28;1336;-53
2022/04/04 01:05:18;;;;;;;;;;;;;;;18.27;61.18;101161.25;4991200;28;1722;-54
2022/04/04 01:07:44;;;;;;;;;;;;;;;18.55;60.87;101178.66;4991481;28;1978;-53
2022/04/04 01:10:11;;;;;;;;;;;;;;;18.78;59.50;101189.34;4989660;28;1461;-59
2022/04/04 01:12:38;;;;;;;;;;;;;;;18.74;60.57;101175.38;4988192;28;1312;-59
2022/04/04 01:15:05;;;;;;;;;;;;;;;18.81;60.54;101178.41;4995794;28;1445;-59
2022/04/04 01:17:33;;;;;;;;;;;;;;;18.97;58.94;101176.19;4989468;28;1009;-59
2022/04/04 01:19:59;;;;;;;;;;;;;;;19.41;59.04;101195.78;4993646;28;1721;-59
2022/04/04 01:22:26;;;;;;;;;;;;;;;19.63;57.23;101176.06;4986888;28;1616;-53
2022/04/04 01:24:54;;;;;;;;;;;;;;;19.63;58.24;101181.44;4989639;28;1441;-60
2022/04/04 01:27:20;;;;;;;;;;;;;;;19.55;57.58;101181.22;4990789;28;1989;-59
2022/04/04 01:29:47;;;;;;;;;;;;;;;19.59;57.32;101204.13;4990034;28;1501;-54
2022/04/04 01:32:14;;;;;;;;;;;;;;;19.65;58.09;101186.66;4987002;28;1659;-59
2022/04/04 01:34:41;;;;;;;;;;;;;;;19.67;57.01;101188.25;4990497;28;1726;-54
2022/04/04 01:37:07;;;;;;;;;;;;;;;19.72;56.84;101198.63;4993802;28;1457;-59
2022/04/04 01:39:34;;;;;;;;;;;;;;;19.74;56.83;101201.19;4989372;28;1792;-59
2022/04/04 01:42:02;;;;;;;;;;;;;;;19.81;56.55;101213.09;4989046;28;1674;-53
2022/04/04 01:44:29;;;;;;;;;;;;;;;19.81;57.27;101208.56;4992091;28;1742;-54
2022/04/04 01:46:55;;;;;;;;;;;;;;;19.78;56.55;101202.63;4995075;28;1429;-58
2022/04/04 01:49:22;;;;;;;;;;;;;;;19.83;56.92;101206.59;4988920;28;1903;-53
2022/04/04 01:51:48;;;;;;;;;;;;;;;19.71;56.91;101207.66;4997800;28;1050;-53
2022/04/04 01:54:15;;;;;;;;;;;;;;;19.76;57.94;101205.44;4992654;28;1748;-54
2022/04/04 01:56:43;;;;;;;;;;;;;;;19.86;57.67;101203.69;4991025;28;1584;-60
2022/04/04 01:59:11;;;;;;;;;;;;;;;19.89;56.89;101220.50;4993845;28;1305;-60
2022/04/04 02:01:37;;;;;;;;;;;;;;;19.90;57.59;101208.78;5021529;23;1910;-84
2022/04/04 02:04:04;;;;;;;;;;;;;;;19.89;57.74;101190.97;5012578;28;1486;-83
2022/04/04 02:06:30;;;;;;;;;;;;;;;19.79;58.01;101215.91;5019390;28;1070;-83
2022/04/04 02:08:57;;;;;;;;;;;;;;;19.81;56.71;101219.31;5010905;28;1977;-83
2022/04/04 02:11:24;;;;;;;;;;;;;;;19.88;56.73;101214.28;5006749;28;1406;-83
2022/04/04 02:13:50;;;;;;;;;;;;;;;19.92;57.64;101204.16;5013248;28;1481;-84
2022/04/04 02:16:18;;;;;;;;;;;;;;;19.93;56.46;101238.03;5012819;28;1555;-84
2022/04/04 02:18:45;;;;;;;;;;;;;;;19.89;57.27;101207.91;5006361;28;1730;-84
2022/04/04 02:21:11;;;;;;;;;;;;;;;19.91;57.48;101207.78;5011025;28;1054;-83
2022/04/04 02:23:39;;;;;;;;;;;;;;;19.77;57.19;101214.34;5015748;28;1810;-84
2022/04/04 02:26:06;;;;;;;;;;;;;;;19.87;56.88;101207.19;5015884;28;1676;-84
2022/04/04 02:28:32;;;;;;;;;;;;;;;19.80;57.70;101198.00;5012619;28;1882;-84
2022/04/04 02:30:59;;;;;;;;;;;;;;;19.82;57.92;101199.56;5014602;28;1642;-83
2022/04/04 02:33:27;;;;;;;;;;;;;;;19.86;57.40;101210.88;5016639;28;1642;-83
2022/04/04 02:35:54;;;;;;;;;;;;;;;19.92;56.83;101215.72;5008370;28;1103;-83
2022/04/04 02:38:22;;;;;;;;;;;;;;;19.79;56.65;101201.63;5012886;28;1663;-85
2022/04/04 02:40:49;;;;;;;;;;;;;;;19.92;56.40;101206.84;5005145;28;1425;-84
2022/04/04 02:43:17;;;;;;;;;;;;;;;19.93;57.00;101213.88;5011519;28;1507;-83
2022/04/04 02:45:44;;;;;;;;;;;;;;;20.06;57.31;101206.50;5015792;28;1751;-84
2022/04/04 02:48:10;;;;;;;;;;;;;;;20.01;57.06;101206.03;5014405;28;1887;-83
2022/04/04 02:50:38;;;;;;;;;;;;;;;20.07;56.42;101229.66;5014533;28;1551;-83
2022/04/04 02:53:05;;;;;;;;;;;;;;;20.03;56.24;101220.16;5015823;28;1564;-84
2022/04/04 02:58:15;;;;;;;;;;;;;;;19.88;57.60;101218.81;5008048;28;1677;-85
2022/04/04 03:00:42;;;;;;;;;;;;;;;19.96;57.54;101227.06;5016303;28;1650;-84
2022/04/04 03:03:09;;;;;;;;;;;;;;;19.92;57.11;101236.34;5006471;28;1438;-85
2022/04/04 03:05:36;;;;;;;;;;;;;;;20.03;57.40;101239.84;5004302;28;999;-84
2022/04/04 03:08:04;;;;;;;;;;;;;;;19.97;56.75;101232.28;5010277;28;1906;-83
2022/04/04 03:10:31;;;;;;;;;;;;;;;20.06;57.29;101228.81;5001598;28;1781;-83
2022/04/04 03:12:59;;;;;;;;;;;;;;;20.01;56.41;101230.19;5002560;28;1630;-83
2022/04/04 03:15:26;;;;;;;;;;;;;;;20.03;57.31;101236.28;5014144;28;1488;-83
2022/04/04 03:17:54;;;;;;;;;;;;;;;20.12;57.02;101232.81;5015435;28;1517;-83
2022/04/04 03:20:21;;;;;;;;;;;;;;;20.01;56.19;101224.81;5013014;28;1444;-84
2022/04/04 03:22:49;;;;;;;;;;;;;;;20.03;56.84;101233.59;5014159;28;1794;-83
2022/04/04 03:25:17;;;;;;;;;;;;;;;20.00;57.49;101225.81;5010149;28;1587;-84
2022/04/04 03:27:44;;;;;;;;;;;;;;;19.94;57.24;101224.50;5013546;28;1615;-84
2022/04/04 03:30:11;;;;;;;;;;;;;;;20.00;56.66;101237.41;5016921;28;1883;-84
2022/04/04 03:32:38;;;;;;;;;;;;;;;20.03;57.41;101226.41;5011736;28;1608;-85
2022/04/04 03:35:05;;;;;;;;;;;;;;;20.12;57.04;101227.44;5014001;28;1658;-83
2022/04/04 03:37:33;;;;;;;;;;;;;;;20.16;56.05;101246.84;5015452;28;1626;-83
2022/04/04 03:39:59;;;;;;;;;;;;;;;20.18;56.03;101245.72;5010601;28;1551;-82
2022/04/04 03:42:27;;;;;;;;;;;;;;;19.98;56.68;101236.69;5011260;28;1520;-84
2022/04/04 03:44:54;;;;;;;;;;;;;;;20.08;57.25;101252.84;5006347;28;1788;-83
2022/04/04 03:47:21;;;;;;;;;;;;;;;20.12;57.15;101254.28;5009551;28;1828;-83
2022/04/04 03:49:48;;;;;;;;;;;;;;;19.96;56.62;101257.44;5004304;28;1989;-84
2022/04/04 03:52:15;;;;;;;;;;;;;;;20.08;56.41;101271.66;5014790;28;1671;-83
2022/04/04 03:54:42;;;;;;;;;;;;;;;19.88;57.84;101253.72;5014728;28;1539;-84
2022/04/04 03:57:09;;;;;;;;;;;;;;;19.37;58.62;101269.44;5012093;28;1582;-85
2022/04/04 03:59:36;;;;;;;;;;;;;;;19.13;59.25;101266.09;5011668;28;1749;-84
2022/04/04 04:02:03;;;;;;;;;;;;;;;18.96;59.23;101268.31;5013066;28;1584;-84
2022/04/04 04:04:29;;;;;;;;;;;;;;;18.86;59.75;101283.38;5014089;28;1796;-84
2022/04/04 04:06:56;;;;;;;;;;;;;;;18.82;59.52;101281.94;5004413;28;1651;-84
2022/04/04 04:09:22;;;;;;;;;;;;;;;18.79;59.61;101292.88;5005424;28;1902;-83
2022/04/04 04:11:49;;;;;;;;;;;;;;;18.72;59.49;101294.31;5007208;28;1553;-83
2022/04/04 04:14:16;;;;;;;;;;;;;;;18.63;59.58;101295.91;5005258;28;1597;-83
2022/04/04 04:16:44;;;;;;;;;;;;;;;18.60;60.26;101280.06;5007393;28;1456;-83
2022/04/04 04:20:19;;;;;;;;;;;;;;;18.55;60.17;101279.59;5005713;28;1391;-84
2022/04/04 04:21:57;;;;;;;;;;;;;;;18.53;60.34;101295.78;5014413;28;1027;-83
2022/04/04 04:24:23;;;;;;;;;;;;;;;18.52;60.34;101299.41;5009790;28;1606;-84
2022/04/04 04:26:50;;;;;;;;;;;;;;;18.54;60.30;101304.66;5003242;28;1859;-84
2022/04/04 04:29:17;;;;;;;;;;;;;;;18.55;59.57;101307.22;5012752;28;1906;-84
2022/04/04 04:31:44;;;;;;;;;;;;;;;18.51;60.27;101313.78;5010311;28;1575;-83
2022/04/04 04:34:11;;;;;;;;;;;;;;;18.48;59.83;101320.25;5004515;28;1668;-84
2022/04/04 04:36:39;;;;;;;;;;;;;;;18.44;60.27;101307.19;5013734;28;1444;-82
2022/04/04 04:39:06;;;;;;;;;;;;;;;18.39;60.80;101312.91;5009830;28;1331;-83
2022/04/04 04:41:33;;;;;;;;;;;;;;;18.37;60.61;101322.03;5012616;28;1555;-86
2022/04/04 04:44:02;;;;;;;;;;;;;;;18.37;60.59;101322.88;5018337;28;1597;-84
2022/04/04 04:46:29;;;;;;;;;;;;;;;18.32;60.61;101324.19;5016534;28;1685;-84
2022/04/04 04:48:58;;;;;;;;;;;;;;;18.25;59.23;101334.53;5019744;28;1902;-85
2022/04/04 04:51:25;;;;;;;;;;;;;;;18.11;59.61;101332.91;5026980;28;1298;-85
2022/04/04 04:53:51;;;;;;;;;;;;;;;18.04;61.05;101337.00;4999876;28;11377;-84
2022/04/04 04:56:18;;;;;;;;;;;;;;;18.02;61.38;101328.22;5027612;28;1341;-85
2022/04/04 04:58:44;;;;;;;;;;;;;;;18.07;61.04;101342.13;5017340;28;1686;-86
2022/04/04 05:01:11;;;;;;;;;;;;;;;18.11;60.67;101332.91;5010998;28;1427;-86
2022/04/04 05:03:37;;;;;;;;;;;;;;;18.20;61.04;101348.25;5013487;28;1676;-86
2022/04/04 05:06:05;;;;;;;;;;;;;;;18.29;60.29;101327.97;5019987;28;1489;-84
2022/04/04 05:08:32;;;;;;;;;;;;;;;18.27;59.76;101345.97;5014068;28;1922;-85
2022/04/04 05:10:59;;;;;;;;;;;;;;;18.37;59.18;101340.78;5012638;28;1701;-83
2022/04/04 05:13:27;;;;;;;;;;;;;;;18.37;59.71;101343.47;5010622;28;1410;-84
2022/04/04 05:15:54;;;;;;;;;;;;;;;18.25;60.34;101354.13;5011704;28;1327;-84
2022/04/04 05:18:21;;;;;;;;;;;;;;;18.10;58.74;101357.94;5014686;28;1460;-84
2022/04/04 05:20:47;;;;;;;;;;;;;;;18.03;59.38;101354.03;5017114;28;1308;-84
2022/04/04 05:23:15;;;;;;;;;;;;;;;18.05;59.76;101362.81;5010107;28;1632;-84
2022/04/04 05:25:42;;;;;;;;;;;;;;;18.04;59.92;101364.59;5008881;28;1631;-84
2022/04/04 05:28:09;;;;;;;;;;;;;;;18.10;60.08;101387.38;5006391;28;1669;-83
2022/04/04 05:30:35;;;;;;;;;;;;;;;18.03;60.15;101370.94;5017835;28;1914;-83
2022/04/04 05:33:02;;;;;;;;;;;;;;;18.17;59.46;101372.59;5016844;28;1474;-84
2022/04/04 05:35:29;;;;;;;;;;;;;;;18.21;59.37;101392.81;5008244;28;1768;-84
2022/04/04 05:37:55;;;;;;;;;;;;;;;18.29;59.05;101371.66;5016868;28;1423;-85
2022/04/04 05:40:23;;;;;;;;;;;;;;;18.36;59.77;101379.22;5014630;28;1636;-83
2022/04/04 05:42:50;;;;;;;;;;;;;;;18.35;59.52;101382.88;5017425;28;1679;-83
2022/04/04 05:45:17;;;;;;;;;;;;;;;18.42;59.25;101381.44;5019080;28;1626;-83
2022/04/04 05:47:44;;;;;;;;;;;;;;;18.43;58.98;101384.00;5015515;28;1523;-83
2022/04/04 05:50:11;;;;;;;;;;;;;;;18.51;59.13;101396.81;5017212;28;1973;-82
2022/04/04 05:52:37;;;;;;;;;;;;;;;18.49;59.05;101407.63;5031338;28;1795;-83
2022/04/04 05:55:04;;;;;;;;;;;;;;;18.51;59.76;101406.69;5018552;28;1399;-83
2022/04/04 05:57:34;;;;;;;;;;;;;;;18.54;59.44;101401.91;5013513;28;1541;-82
2022/04/04 06:00:00;;;;;;;;;;;;;;;18.61;58.15;101410.34;5018795;28;1360;-83
2022/04/04 06:02:27;;;;;;;;;;;;;;;18.69;58.76;101411.47;5020825;28;1830;-84
2022/04/04 06:04:55;;;;;;;;;;;;;;;18.88;57.58;101434.22;5007780;28;1313;-85
2022/04/04 06:07:21;;;;;;;;;;;;;;;18.91;58.35;101423.25;5000386;28;1668;-83
2022/04/04 06:09:48;;;;;;;;;;;;;;;18.95;57.47;101414.00;5014746;28;1969;-85
2022/04/04 06:12:14;;;;;;;;;;;;;;;18.85;57.88;101407.66;5009513;28;1309;-88
2022/04/04 06:14:42;;;;;;;;;;;;;;;18.84;57.86;101411.28;5018173;28;1761;-86
2022/04/04 06:17:09;;;;;;;;;;;;;;;18.83;57.55;101420.31;5015622;28;1420;-86
2022/04/04 06:19:36;;;;;;;;;;;;;;;18.93;57.93;101423.97;5011962;28;1486;-85
2022/04/04 06:22:03;;;;;;;;;;;;;;;18.97;58.16;101420.09;5018760;28;1407;-86
2022/04/04 06:24:31;;;;;;;;;;;;;;;19.07;57.14;101434.47;5016124;28;1257;-84
2022/04/04 06:27:04;;;;;;;;;;;;;;;18.97;57.73;101428.13;5016028;28;1623;-84
2022/04/04 06:29:30;;;;;;;;;;;;;;;18.90;58.38;101421.56;5016910;28;1906;-86
2022/04/04 06:31:58;;;;;;;;;;;;;;;18.78;57.31;101414.41;5015438;28;1494;-84
2022/04/04 06:34:25;;;;;;;;;;;;;;;18.56;56.69;101421.44;5013399;28;1562;-85
2022/04/04 06:36:52;;;;;;;;;;;;;;;18.61;57.44;101427.28;4998432;28;1078;-85
2022/04/04 06:39:19;;;;;;;;;;;;;;;18.62;55.77;101418.28;5001831;28;1906;-84
2022/04/04 06:41:46;;;;;;;;;;;;;;;18.62;55.91;101437.03;5004940;28;1760;-85
2022/04/04 06:44:14;;;;;;;;;;;;;;;18.61;56.18;101429.94;5008275;28;1239;-84
2022/04/04 06:46:40;;;;;;;;;;;;;;;18.62;55.95;101437.03;5007438;28;1490;-84
2022/04/04 06:49:08;;;;;;;;;;;;;;;18.66;55.42;101441.19;5001450;28;1906;-84
2022/04/04 06:51:35;;;;;;;;;;;;;;;18.63;55.18;101446.75;5012011;28;986;-85
2022/04/04 06:54:03;;;;;;;;;;;;;;;18.64;55.00;101443.13;5015571;28;1589;-84
2022/04/04 06:56:30;;;;;;;;;;;;;;;18.57;55.93;101441.88;5001698;28;1681;-85
2022/04/04 06:58:56;;;;;;;;;;;;;;;18.59;55.45;101449.81;5008119;28;1260;-85
2022/04/04 07:01:23;;;;;;;;;;;;;;;18.61;55.15;101459.41;5007346;28;1673;-84
2022/04/04 07:03:49;;;;;;;;;;;;;;;18.62;55.09;101454.91;5001927;28;1700;-85
2022/04/04 07:06:17;;;;;;;;;;;;;;;18.59;55.58;101450.66;5010533;28;1651;-85
2022/04/04 07:08:43;;;;;;;;;;;;;;;18.59;55.54;101449.81;5005709;28;1656;-85
2022/04/04 07:11:13;;;;;;;;;;;;;;;18.59;55.28;101450.66;5009016;28;1902;-85
2022/04/04 07:13:40;;;;;;;;;;;;;;;18.56;54.93;101450.91;5016537;28;1645;-85
2022/04/04 07:16:06;;;;;;;;;;;;;;;18.58;55.34;101457.00;5006465;28;1447;-85
2022/04/04 07:18:34;;;;;;;;;;;;;;;18.59;55.08;101450.66;5010028;28;1693;-83
2022/04/04 07:21:00;;;;;;;;;;;;;;;18.62;54.45;101450.44;5009146;28;1713;-84
2022/04/04 07:23:28;;;;;;;;;;;;;;;18.61;54.34;101453.22;5009415;28;1764;-85
2022/04/04 07:25:55;;;;;;;;;;;;;;;18.64;54.60;101448.50;5008028;28;1415;-85
2022/04/04 07:28:22;;;;;;;;;;;;;;;18.64;54.14;101464.56;5014805;28;1808;-85
2022/04/04 07:30:49;;;;;;;;;;;;;;;18.63;54.29;101454.81;4999270;28;2000;-86
2022/04/04 07:33:18;;;;;;;;;;;;;;;18.64;54.71;101463.69;5007529;28;1668;-85
2022/04/04 07:35:45;;;;;;;;;;;;;;;18.62;54.84;101463.81;5006734;28;1090;-85
2022/04/04 07:38:11;;;;;;;;;;;;;;;18.63;54.39;101457.47;5014142;28;1596;-84
2022/04/04 07:40:40;;;;;;;;;;;;;;;18.64;54.29;101467.25;5009593;28;1415;-84
2022/04/04 07:43:07;;;;;;;;;;;;;;;18.60;54.89;101465.75;5004341;28;1614;-85
2022/04/04 07:45:33;;;;;;;;;;;;;;;18.64;54.91;101469.91;5016734;28;1838;-84
2022/04/04 07:48:03;;;;;;;;;;;;;;;18.66;54.48;101488.53;5006302;28;1316;-85
2022/04/04 07:50:30;;;;;;;;;;;;;;;18.61;55.45;101485.38;5008995;28;1969;-84
2022/04/04 07:52:57;;;;;;;;;;;;;;;18.61;54.43;101477.31;5001075;28;1833;-86
2022/04/04 07:55:23;;;;;;;;;;;;;;;18.64;54.99;101490.47;5009063;28;1270;-84
2022/04/04 07:57:51;;;;;;;;;;;;;;;18.60;55.02;101478.28;5011465;28;1590;-85
2022/04/04 08:00:21;;;;;;;;;;;;;;;18.63;55.17;101494.97;4997708;28;1017;-84
2022/04/04 08:02:48;;;;;;;;;;;;;;;18.63;54.70;101500.34;5012393;28;1634;-84
2022/04/04 08:05:16;;;;;;;;;;;;;;;18.60;54.66;101480.97;5004205;28;1777;-84
2022/04/04 08:07:44;;;;;;;;;;;;;;;18.59;55.11;101488.16;5000003;28;1840;-85
2022/04/04 08:10:11;;;;;;;;;;;;;;;18.56;54.68;101477.69;5008729;28;1910;-85
2022/04/04 08:12:37;;;;;;;;;;;;;;;18.57;55.55;101495.44;5016211;28;1562;-85
2022/04/04 08:15:08;;;;;;;;;;;;;;;18.52;54.99;101483.38;5010050;28;1661;-83
2022/04/04 08:17:35;;;;;;;;;;;;;;;18.50;54.58;101480.78;5002500;28;978;-85
2022/04/04 08:20:02;;;;;;;;;;;;;;;18.52;55.09;101475.31;5007479;28;1581;-85
2022/04/04 08:22:29;;;;;;;;;;;;;;;18.51;55.11;101479.84;5020001;28;1835;-84
2022/04/04 08:24:55;;;;;;;;;;;;;;;18.51;55.32;101485.19;5002507;28;1705;-85
2022/04/04 08:27:22;;;;;;;;;;;;;;;18.48;55.76;101488.97;5001066;28;1443;-85
2022/04/04 08:29:49;;;;;;;;;;;;;;;18.45;54.76;101475.78;5012512;28;1969;-85
2022/04/04 08:32:18;;;;;;;;;;;;;;;18.49;55.51;101487.97;5008193;28;1839;-85
2022/04/04 08:34:44;;;;;;;;;;;;;;;18.46;54.84;101476.63;5010585;28;1613;-85
2022/04/04 08:37:11;;;;;;;;;;;;;;;18.46;55.12;101479.31;5002610;28;1058;-84
2022/04/04 08:39:38;;;;;;;;;;;;;;;18.45;54.72;101475.78;5008629;28;1412;-85
2022/04/04 08:42:05;;;;;;;;;;;;;;;18.28;54.71;101476.19;5014437;28;1824;-84
2022/04/04 08:44:32;;;;;;;;;;;;;;;18.43;55.69;101480.41;5018535;28;1479;-84
2022/04/04 08:47:00;;;;;;;;;;;;;;;18.44;54.52;101467.88;5015548;28;1457;-85
2022/04/04 08:49:28;;;;;;;;;;;;;;;18.48;55.25;101480.06;5018884;28;1612;-85
2022/04/04 08:51:55;;;;;;;;;;;;;;;18.45;55.42;101480.31;5018808;28;1907;-83
2022/04/04 08:54:21;;;;;;;;;;;;;;;18.50;55.10;101475.44;5015339;28;1491;-84
2022/04/04 08:56:49;;;;;;;;;;;;;;;18.52;56.00;101478.00;5038383;28;1649;-82
2022/04/04 08:59:18;;;;;;;;;;;;;;;18.49;55.15;101465.72;5024198;28;1780;-86
2022/04/04 09:01:44;;;;;;;;;;;;;;;18.52;55.43;101465.47;5020443;28;1614;-85
2022/04/04 09:04:15;;;;;;;;;;;;;;;18.40;56.31;101455.69;5017825;28;1867;-85
2022/04/04 09:06:50;;;;;;;;;;;;;;;18.35;55.90;101441.78;5020141;28;1518;-85
2022/04/04 09:09:25;;;;;;;;;;;;;;;18.33;56.04;101441.06;5020886;28;1497;-86
2022/04/04 09:11:52;;;;;;;;;;;;;;;18.30;56.34;101450.16;5018103;28;1902;-87
2022/04/04 09:14:21;;;;;;;;;;;;;;;18.23;55.83;101428.34;5016950;28;1891;-89
2022/04/04 09:16:53;;;;;;;;;;;;;;;18.23;55.99;101433.69;5020888;28;1680;-87
2022/04/04 09:19:27;;;;;;;;;;;;;;;18.26;56.06;101429.94;5014960;28;1676;-88
2022/04/04 09:21:55;;;;;;;;;;;;;;;18.24;55.96;101424.72;5018514;28;1021;-88
2022/04/04 09:24:22;;;;;;;;;;;;;;;18.24;55.57;101411.31;5012797;28;1324;-85
2022/04/04 09:26:50;;;;;;;;;;;;;;;18.32;55.51;101425.94;5013338;28;1411;-88
2022/04/04 09:29:17;;;;;;;;;;;;;;;18.23;55.67;101409.59;5017390;28;1740;-85
2022/04/04 09:31:54;;;;;;;;;;;;;;;18.24;55.34;101419.34;5016745;28;1973;-84
2022/04/04 09:34:21;;;;;;;;;;;;;;;18.24;55.42;101414.00;5014419;28;1475;-85
2022/04/04 09:36:48;;;;;;;;;;;;;;;18.23;56.37;101406.09;5016224;28;1471;-86
2022/04/04 09:39:17;;;;;;;;;;;;;;;18.27;55.41;101399.53;5015469;28;1563;-85
2022/04/04 09:41:44;;;;;;;;;;;;;;;18.21;56.18;101398.16;5005024;28;1506;-88
2022/04/04 09:44:12;;;;;;;;;;;;;;;18.19;56.10;101405.44;5015028;28;1423;-87
2022/04/04 09:46:39;;;;;;;;;;;;;;;18.23;55.94;101401.56;5007530;28;1423;-85
2022/04/04 09:49:08;;;;;;;;;;;;;;;18.17;56.42;101385.97;5001189;28;1554;-86
2022/04/04 09:51:35;;;;;;;;;;;;;;;18.16;56.45;101405.66;5016942;28;1977;-86
2022/04/04 09:54:03;;;;;;;;;;;;;;;18.19;56.18;101384.03;5012005;28;1395;-88
2022/04/04 09:56:30;;;;;;;;;;;;;;;18.22;56.18;101383.81;5012617;28;1609;-88
2022/04/04 09:58:59;;;;;;;;;;;;;;;18.21;56.27;101386.59;5009959;28;1407;-86
2022/04/04 10:01:26;;;;;;;;;;;;;;;18.23;55.90;101390.88;5014827;28;1359;-87
2022/04/04 10:03:53;;;;;;;;;;;;;;;18.19;55.49;101369.81;5010291;28;1682;-86
2022/04/04 10:06:22;;;;;;;;;;;;;;;18.19;56.13;101381.34;5008382;28;1085;-87
2022/04/04 10:08:54;;;;;;;;;;;;;;;18.17;55.92;101375.28;5005979;28;1218;-86
2022/04/04 10:11:21;;;;;;;;;;;;;;;18.17;56.19;101385.97;5007683;28;1968;-87
2022/04/04 10:13:49;;;;;;;;;;;;;;;18.22;56.48;101383.81;5010553;28;1420;-87
2022/04/04 10:16:18;;;;;;;;;;;;;;;18.23;55.93;101377.47;5015318;28;1322;-86
2022/04/04 10:18:46;;;;;;;;;;;;;;;18.29;55.30;101366.31;5009891;28;1360;-86
2022/04/04 10:21:13;;;;;;;;;;;;;;;18.28;55.42;101369.09;5016653;28;1508;-87
2022/04/04 10:23:41;;;;;;;;;;;;;;;18.28;54.85;101372.66;5008810;28;1600;-86
2022/04/04 10:26:08;;;;;;;;;;;;;;;18.28;55.60;101359.25;5006891;28;1553;-88
2022/04/04 10:28:36;;;;;;;;;;;;;;;18.30;55.66;101361.78;5000928;28;1392;-88
2022/04/04 10:31:11;;;;;;;;;;;;;;;18.27;55.80;101360.22;5012640;28;1914;-89
2022/04/04 10:33:38;;;;;;;;;;;;;;;18.26;55.98;101358.53;5013759;28;1551;-88
2022/04/04 10:36:05;;;;;;;;;;;;;;;18.32;56.22;101361.69;5017499;28;1409;-87
2022/04/04 10:41:38;;;;;;;;;;;;;;;19.19;53.67;101359.44;5017721;28;1426;-88
2022/04/04 10:44:21;;;;;;;;;;;;;;;19.43;53.52;101352.06;5018648;28;1574;-85
2022/04/04 10:46:51;;;;;;;;;;;;;;;19.42;53.19;101357.59;5015182;28;1469;-88
2022/04/04 10:49:21;;;;;;;;;;;;;;;19.60;54.18;101339.16;5017098;28;1792;-87
2022/04/04 10:51:51;;;;;;;;;;;;;;;19.61;54.01;101365.81;5016728;28;1879;-87
2022/04/04 10:54:25;;;;;;;;;;;;;;;19.52;53.84;101353.19;5019065;28;1581;-87
2022/04/04 10:56:59;;;;;;;;;;;;;;;19.64;53.69;101356.69;5015923;28;1592;-87
2022/04/04 10:59:27;;;;;;;;;;;;;;;19.88;53.86;101363.75;5017671;28;1757;-85
2022/04/04 11:01:58;;;;;;;;;;;;;;;19.76;52.83;101339.63;5013034;28;1479;-87
2022/04/04 11:04:25;;;;;;;;;;;;;;;19.92;52.98;101338.34;5020879;28;1494;-86
2022/04/04 11:09:51;;;;;;;;;;;;;;;20.55;51.37;101330.31;5017984;28;1200;-87
2022/04/04 11:12:18;;;;;;;;;;;;;;;20.63;52.15;101323.38;5018241;28;1985;-90
2022/04/04 11:14:54;;;;;;;;;;;;;;;20.21;52.41;101325.16;5020957;28;1748;-88
2022/04/04 11:17:33;;;;;;;;;;;;;;;19.85;54.27;101341.53;5021606;28;1854;-87
2022/04/04 11:20:10;;;;;;;;;;;;;;;19.62;55.10;101326.47;5021501;28;1835;-86
2022/04/04 11:22:41;;;;;;;;;;;;;;;19.26;54.85;101317.75;5030482;28;1378;-87
2022/04/04 11:25:13;;;;;;;;;;;;;;;19.29;56.84;101314.81;5020481;28;1566;-87
2022/04/04 11:27:57;;;;;;;;;;;;;;;19.18;56.09;101312.13;5015108;28;1496;-87
2022/04/04 11:30:27;;;;;;;;;;;;;;;19.11;57.61;101313.63;5018847;28;1964;-86
2022/04/04 11:32:57;;;;;;;;;;;;;;;19.08;56.88;101299.47;5017348;28;1531;-87
2022/04/04 11:35:27;;;;;;;;;;;;;;;19.21;56.33;101301.16;5022380;28;1297;-85
2022/04/04 11:37:55;;;;;;;;;;;;;;;19.16;58.15;101293.50;5021324;28;1477;-88
2022/04/04 11:40:25;;;;;;;;;;;;;;;19.11;58.02;101295.69;5024813;28;1398;-86
2022/04/04 11:42:52;;;;;;;;;;;;;;;19.04;58.74;101291.81;5020712;28;1555;-87
2022/04/04 11:45:21;;;;;;;;;;;;;;;19.00;58.09;101288.53;5021502;28;1801;-84
2022/04/04 11:48:03;;;;;;;;;;;;;;;18.98;57.93;101290.47;5025571;28;1396;-86
2022/04/04 11:50:37;;;;;;;;;;;;;;;18.93;57.33;101287.31;5021207;28;1978;-86
2022/04/04 11:53:08;;;;;;;;;;;;;;;18.85;57.87;101276.34;5024318;28;1199;-86
2022/04/04 11:55:36;;;;;;;;;;;;;;;18.91;58.03;101267.81;5018466;28;1544;-83
2022/04/04 11:58:04;;;;;;;;;;;;;;;19.28;57.11;101279.09;5019685;28;1487;-86
2022/04/04 12:00:37;;;;;;;;;;;;;;;19.40;56.49;101265.69;5023710;28;1809;-86
2022/04/04 12:03:04;;;;;;;;;;;;;;;19.24;57.78;101269.59;5004812;28;1569;-85
2022/04/04 12:05:33;;;;;;;;;;;;;;;19.17;58.08;101271.06;4997875;28;1643;-84
2022/04/04 12:08:02;;;;;;;;;;;;;;;19.35;56.70;101265.19;4997203;28;1303;-86
2022/04/04 12:10:32;;;;;;;;;;;;;;;19.49;57.52;101267.59;4993577;28;1451;-86
2022/04/04 12:13:02;;;;;;;;;;;;;;;19.53;57.37;101260.13;4999212;28;1486;-86
2022/04/04 12:15:30;;;;;;;;;;;;;;;19.27;56.95;101257.78;5003013;28;1474;-84
2022/04/04 12:18:07;;;;;;;;;;;;;;;18.92;56.79;101250.78;4991848;28;1412;-86
2022/04/04 12:20:45;;;;;;;;;;;;;;;18.90;56.48;101257.19;4999590;28;1134;-85
2022/04/04 12:26:17;;;;;;;;;;;;;;;18.81;58.16;101245.41;4997484;28;1316;-86
2022/04/04 12:28:52;;;;;;;;;;;;;;;18.78;58.04;101240.25;4998577;28;1584;-83
2022/04/04 12:31:19;;;;;;;;;;;;;;;18.76;57.70;101247.56;4999590;28;1950;-82
2022/04/04 12:33:46;;;;;;;;;;;;;;;18.72;58.69;101238.94;4996049;28;1876;-83
2022/04/04 12:36:14;;;;;;;;;;;;;;;18.70;58.26;101227.47;4987999;28;1459;-82
2022/04/04 12:38:41;;;;;;;;;;;;;;;18.77;57.82;101239.41;4996207;28;1675;-83
2022/04/04 12:41:09;;;;;;;;;;;;;;;18.72;58.16;101211.28;4996183;28;1513;-86
2022/04/04 12:43:38;;;;;;;;;;;;;;;18.66;58.96;101216.16;4985332;28;1132;-84
2022/04/04 12:46:06;;;;;;;;;;;;;;;18.75;59.39;101222.59;5003261;28;1485;-85
2022/04/04 12:48:35;;;;;;;;;;;;;;;18.77;58.08;101206.41;4993770;28;1715;-86
2022/04/04 12:51:29;;;;;;;;;;;;;;;18.80;58.93;101206.19;4983208;28;1906;-85
2022/04/04 12:54:00;;;;;;;;;;;;;;;18.80;57.97;101195.47;4997057;28;1583;-86
2022/04/04 12:56:27;;;;;;;;;;;;;;;18.72;58.85;101201.44;4997771;28;1588;-86
2022/04/04 12:59:05;;;;;;;;;;;;;;;18.54;57.92;101190.31;4997378;28;1652;-88
2022/04/04 13:01:33;;;;;;;;;;;;;;;18.33;56.85;101192.91;5006620;28;1761;-86
2022/04/04 13:03:59;;;;;;;;;;;;;;;18.31;55.11;101180.63;5029361;28;1455;-86